sensor_id;sensor_type;location;lat;lon;timestamp;temperature;humidity
38854;DHT22;24606;51.992;4.198;2023-05-29T00:04:37;25.70;52.00
38854;DHT22;24606;51.992;4.198;2023-05-29T00:09:39;25.60;52.10
38854;DHT22;24606;51.992;4.198;2023-05-29T00:14:42;25.50;52.20
38854;DHT22;24606;51.992;4.198;2023-05-29T00:19:44;25.60;52.10
38854;DHT22;24606;51.992;4.198;2023-05-29T00:24:46;25.50;52.00
38854;DHT22;24606;51.992;4.198;2023-05-29T00:29:49;25.50;52.00
38854;DHT22;24606;51.992;4.198;2023-05-29T00:34:51;25.40;52.10
38854;DHT22;24606;51.992;4.198;2023-05-29T00:39:53;25.40;52.10
38854;DHT22;24606;51.992;4.198;2023-05-29T00:44:57;25.20;52.10
38854;DHT22;24606;51.992;4.198;2023-05-29T00:49:59;25.20;52.10
38854;DHT22;24606;51.992;4.198;2023-05-29T00:55:01;25.20;52.10
38854;DHT22;24606;51.992;4.198;2023-05-29T01:00:06;25.20;52.10
38854;DHT22;24606;51.992;4.198;2023-05-29T01:05:10;25.00;52.10
38854;DHT22;24606;51.992;4.198;2023-05-29T01:10:12;25.00;52.10
38854;DHT22;24606;51.992;4.198;2023-05-29T01:15:23;25.00;51.90
38854;DHT22;24606;51.992;4.198;2023-05-29T01:20:27;25.00;52.10
38854;DHT22;24606;51.992;4.198;2023-05-29T01:25:41;25.00;52.20
38854;DHT22;24606;51.992;4.198;2023-05-29T01:30:50;24.90;52.30
38854;DHT22;24606;51.992;4.198;2023-05-29T01:35:52;24.80;52.20
38854;DHT22;24606;51.992;4.198;2023-05-29T01:40:54;24.70;52.00
38854;DHT22;24606;51.992;4.198;2023-05-29T01:45:57;24.60;52.30
38854;DHT22;24606;51.992;4.198;2023-05-29T01:51:00;24.70;52.00
38854;DHT22;24606;51.992;4.198;2023-05-29T01:56:02;24.60;52.10
38854;DHT22;24606;51.992;4.198;2023-05-29T02:01:06;24.60;52.80
38854;DHT22;24606;51.992;4.198;2023-05-29T02:06:07;24.50;51.80
38854;DHT22;24606;51.992;4.198;2023-05-29T02:11:11;24.50;52.20
38854;DHT22;24606;51.992;4.198;2023-05-29T02:16:14;24.50;52.30
38854;DHT22;24606;51.992;4.198;2023-05-29T02:21:17;24.40;52.30
38854;DHT22;24606;51.992;4.198;2023-05-29T02:26:19;24.40;52.10
38854;DHT22;24606;51.992;4.198;2023-05-29T02:31:22;24.30;51.90
38854;DHT22;24606;51.992;4.198;2023-05-29T02:36:24;24.30;52.10
38854;DHT22;24606;51.992;4.198;2023-05-29T02:41:26;24.20;52.30
38854;DHT22;24606;51.992;4.198;2023-05-29T02:46:29;24.30;52.70
38854;DHT22;24606;51.992;4.198;2023-05-29T02:51:31;24.20;52.20
38854;DHT22;24606;51.992;4.198;2023-05-29T02:56:34;24.10;52.10
38854;DHT22;24606;51.992;4.198;2023-05-29T03:15:28;24.00;51.30
38854;DHT22;24606;51.992;4.198;2023-05-29T03:20:30;24.00;52.30
38854;DHT22;24606;51.992;4.198;2023-05-29T03:25:32;23.90;52.60
38854;DHT22;24606;51.992;4.198;2023-05-29T03:30:35;23.70;52.40
38854;DHT22;24606;51.992;4.198;2023-05-29T03:35:37;23.80;52.10
38854;DHT22;24606;51.992;4.198;2023-05-29T03:40:39;23.70;52.30
38854;DHT22;24606;51.992;4.198;2023-05-29T03:45:42;23.80;52.40
38854;DHT22;24606;51.992;4.198;2023-05-29T03:50:44;23.70;52.10
38854;DHT22;24606;51.992;4.198;2023-05-29T03:55:46;23.60;52.00
38854;DHT22;24606;51.992;4.198;2023-05-29T04:00:49;23.70;52.10
38854;DHT22;24606;51.992;4.198;2023-05-29T04:05:51;23.60;52.30
38854;DHT22;24606;51.992;4.198;2023-05-29T04:10:52;23.50;52.40
38854;DHT22;24606;51.992;4.198;2023-05-29T04:15:56;23.60;52.20
38854;DHT22;24606;51.992;4.198;2023-05-29T04:20:58;23.50;52.70
38854;DHT22;24606;51.992;4.198;2023-05-29T04:26:00;23.50;52.20
38854;DHT22;24606;51.992;4.198;2023-05-29T04:31:04;23.50;52.20
38854;DHT22;24606;51.992;4.198;2023-05-29T04:36:06;23.40;52.30
38854;DHT22;24606;51.992;4.198;2023-05-29T04:41:09;23.50;52.20
38854;DHT22;24606;51.992;4.198;2023-05-29T04:46:12;23.50;52.10
38854;DHT22;24606;51.992;4.198;2023-05-29T04:51:15;23.40;52.00
38854;DHT22;24606;51.992;4.198;2023-05-29T04:56:20;23.50;52.30
38854;DHT22;24606;51.992;4.198;2023-05-29T05:01:24;23.40;51.90
38854;DHT22;24606;51.992;4.198;2023-05-29T05:06:26;23.40;52.20
38854;DHT22;24606;51.992;4.198;2023-05-29T05:11:27;23.40;52.20
38854;DHT22;24606;51.992;4.198;2023-05-29T05:16:31;23.40;52.20
38854;DHT22;24606;51.992;4.198;2023-05-29T05:21:33;23.40;52.00
38854;DHT22;24606;51.992;4.198;2023-05-29T05:26:36;23.40;52.00
38854;DHT22;24606;51.992;4.198;2023-05-29T05:31:39;23.30;52.20
38854;DHT22;24606;51.992;4.198;2023-05-29T05:36:41;23.50;51.70
38854;DHT22;24606;51.992;4.198;2023-05-29T05:41:42;23.40;52.00
38854;DHT22;24606;51.992;4.198;2023-05-29T05:46:45;23.30;51.90
38854;DHT22;24606;51.992;4.198;2023-05-29T05:51:48;23.40;51.90
38854;DHT22;24606;51.992;4.198;2023-05-29T05:56:51;23.30;52.10
38854;DHT22;24606;51.992;4.198;2023-05-29T06:01:54;23.30;52.00
38854;DHT22;24606;51.992;4.198;2023-05-29T06:06:56;23.30;51.90
38854;DHT22;24606;51.992;4.198;2023-05-29T06:11:58;23.20;51.90
38854;DHT22;24606;51.992;4.198;2023-05-29T06:17:02;23.20;51.90
38854;DHT22;24606;51.992;4.198;2023-05-29T06:22:04;23.20;51.90
38854;DHT22;24606;51.992;4.198;2023-05-29T06:27:06;23.20;51.80
38854;DHT22;24606;51.992;4.198;2023-05-29T06:32:10;23.30;52.00
38854;DHT22;24606;51.992;4.198;2023-05-29T06:37:12;23.30;51.70
38854;DHT22;24606;51.992;4.198;2023-05-29T06:42:13;23.30;51.80
38854;DHT22;24606;51.992;4.198;2023-05-29T06:47:16;23.40;51.80
38854;DHT22;24606;51.992;4.198;2023-05-29T06:52:18;23.30;52.10
38854;DHT22;24606;51.992;4.198;2023-05-29T06:57:20;23.30;52.20
38854;DHT22;24606;51.992;4.198;2023-05-29T07:02:23;23.30;52.30
38854;DHT22;24606;51.992;4.198;2023-05-29T07:07:25;23.30;52.00
38854;DHT22;24606;51.992;4.198;2023-05-29T07:12:29;23.50;52.00
38854;DHT22;24606;51.992;4.198;2023-05-29T07:17:32;23.50;52.00
38854;DHT22;24606;51.992;4.198;2023-05-29T07:22:34;23.50;52.20
38854;DHT22;24606;51.992;4.198;2023-05-29T07:27:36;23.50;52.10
38854;DHT22;24606;51.992;4.198;2023-05-29T07:32:39;23.40;51.80
38854;DHT22;24606;51.992;4.198;2023-05-29T07:37:41;23.50;51.60
38854;DHT22;24606;51.992;4.198;2023-05-29T07:42:43;23.70;52.00
38854;DHT22;24606;51.992;4.198;2023-05-29T07:47:46;23.80;51.40
38854;DHT22;24606;51.992;4.198;2023-05-29T07:52:48;23.60;52.00
38854;DHT22;24606;51.992;4.198;2023-05-29T07:57:51;23.70;52.40
38854;DHT22;24606;51.992;4.198;2023-05-29T08:02:54;23.90;51.60
38854;DHT22;24606;51.992;4.198;2023-05-29T08:07:57;23.80;51.90
38854;DHT22;24606;51.992;4.198;2023-05-29T08:13:00;23.90;51.40
38854;DHT22;24606;51.992;4.198;2023-05-29T08:18:03;24.00;52.00
38854;DHT22;24606;51.992;4.198;2023-05-29T08:23:05;24.10;51.40
38854;DHT22;24606;51.992;4.198;2023-05-29T08:28:07;23.80;51.80
38854;DHT22;24606;51.992;4.198;2023-05-29T08:33:10;24.10;51.40
38854;DHT22;24606;51.992;4.198;2023-05-29T08:38:12;24.20;51.20
38854;DHT22;24606;51.992;4.198;2023-05-29T08:43:15;24.10;51.40
38854;DHT22;24606;51.992;4.198;2023-05-29T08:48:19;24.10;52.10
38854;DHT22;24606;51.992;4.198;2023-05-29T08:53:23;23.70;51.00
38854;DHT22;24606;51.992;4.198;2023-05-29T08:58:26;23.70;50.50
38854;DHT22;24606;51.992;4.198;2023-05-29T09:03:29;24.10;51.20
38854;DHT22;24606;51.992;4.198;2023-05-29T09:08:31;24.20;50.80
38854;DHT22;24606;51.992;4.198;2023-05-29T09:13:33;23.80;51.60
38854;DHT22;24606;51.992;4.198;2023-05-29T09:18:37;24.10;50.90
38854;DHT22;24606;51.992;4.198;2023-05-29T09:23:39;24.50;49.60
38854;DHT22;24606;51.992;4.198;2023-05-29T09:28:41;24.60;49.50
38854;DHT22;24606;51.992;4.198;2023-05-29T09:33:48;24.50;49.90
38854;DHT22;24606;51.992;4.198;2023-05-29T09:38:51;23.70;49.50
38854;DHT22;24606;51.992;4.198;2023-05-29T09:43:52;24.10;49.80
38854;DHT22;24606;51.992;4.198;2023-05-29T09:49:01;24.30;49.30
38854;DHT22;24606;51.992;4.198;2023-05-29T09:54:13;24.60;49.50
38854;DHT22;24606;51.992;4.198;2023-05-29T09:59:17;24.70;48.90
38854;DHT22;24606;51.992;4.198;2023-05-29T10:04:22;24.50;48.30
38854;DHT22;24606;51.992;4.198;2023-05-29T10:09:26;24.60;49.30
38854;DHT22;24606;51.992;4.198;2023-05-29T10:14:29;24.70;48.80
38854;DHT22;24606;51.992;4.198;2023-05-29T10:19:37;24.50;49.70
38854;DHT22;24606;51.992;4.198;2023-05-29T10:24:40;24.40;49.90
38854;DHT22;24606;51.992;4.198;2023-05-29T10:29:47;24.90;49.30
38854;DHT22;24606;51.992;4.198;2023-05-29T10:34:58;24.90;49.20
38854;DHT22;24606;51.992;4.198;2023-05-29T10:40:05;25.10;49.50
38854;DHT22;24606;51.992;4.198;2023-05-29T10:45:09;25.00;49.30
38854;DHT22;24606;51.992;4.198;2023-05-29T10:50:13;24.80;48.50
38854;DHT22;24606;51.992;4.198;2023-05-29T10:55:36;25.00;49.50
38854;DHT22;24606;51.992;4.198;2023-05-29T11:00:40;24.70;50.10
38854;DHT22;24606;51.992;4.198;2023-05-29T11:05:57;24.10;47.90
38854;DHT22;24606;51.992;4.198;2023-05-29T11:10:59;23.00;51.70
38854;DHT22;24606;51.992;4.198;2023-05-29T11:16:04;23.80;51.70
38854;DHT22;24606;51.992;4.198;2023-05-29T11:21:22;24.60;50.60
38854;DHT22;24606;51.992;4.198;2023-05-29T11:26:27;24.20;51.50
38854;DHT22;24606;51.992;4.198;2023-05-29T11:31:32;24.10;51.50
38854;DHT22;24606;51.992;4.198;2023-05-29T11:36:37;24.00;51.40
38854;DHT22;24606;51.992;4.198;2023-05-29T11:41:39;24.30;50.60
38854;DHT22;24606;51.992;4.198;2023-05-29T11:46:40;24.60;49.60
38854;DHT22;24606;51.992;4.198;2023-05-29T11:51:43;23.80;50.70
38854;DHT22;24606;51.992;4.198;2023-05-29T11:56:47;24.90;50.60
38854;DHT22;24606;51.992;4.198;2023-05-29T12:01:50;24.70;50.60
38854;DHT22;24606;51.992;4.198;2023-05-29T12:06:54;23.40;53.30
38854;DHT22;24606;51.992;4.198;2023-05-29T12:12:01;24.20;51.60
38854;DHT22;24606;51.992;4.198;2023-05-29T12:17:04;24.60;51.00
38854;DHT22;24606;51.992;4.198;2023-05-29T12:22:08;24.00;52.60
38854;DHT22;24606;51.992;4.198;2023-05-29T12:27:10;24.00;52.20
38854;DHT22;24606;51.992;4.198;2023-05-29T12:32:12;23.40;53.60
38854;DHT22;24606;51.992;4.198;2023-05-29T12:37:22;23.60;53.20
38854;DHT22;24606;51.992;4.198;2023-05-29T12:42:23;23.20;54.80
38854;DHT22;24606;51.992;4.198;2023-05-29T12:47:25;23.90;53.70
38854;DHT22;24606;51.992;4.198;2023-05-29T12:52:28;23.60;52.20
38854;DHT22;24606;51.992;4.198;2023-05-29T12:57:30;23.10;52.50
38854;DHT22;24606;51.992;4.198;2023-05-29T13:02:33;23.20;53.70
38854;DHT22;24606;51.992;4.198;2023-05-29T13:07:36;23.30;54.50
38854;DHT22;24606;51.992;4.198;2023-05-29T13:12:38;24.50;52.00
38854;DHT22;24606;51.992;4.198;2023-05-29T13:17:40;24.90;52.30
38854;DHT22;24606;51.992;4.198;2023-05-29T13:22:45;25.40;51.20
38854;DHT22;24606;51.992;4.198;2023-05-29T13:27:48;25.30;50.90
38854;DHT22;24606;51.992;4.198;2023-05-29T13:32:50;25.40;51.00
38854;DHT22;24606;51.992;4.198;2023-05-29T13:37:54;25.10;48.40
38854;DHT22;24606;51.992;4.198;2023-05-29T13:42:56;25.90;51.00
38854;DHT22;24606;51.992;4.198;2023-05-29T13:48:02;25.90;51.30
38854;DHT22;24606;51.992;4.198;2023-05-29T13:53:05;25.70;51.20
38854;DHT22;24606;51.992;4.198;2023-05-29T13:58:07;26.10;50.60
38854;DHT22;24606;51.992;4.198;2023-05-29T14:03:09;25.90;51.70
38854;DHT22;24606;51.992;4.198;2023-05-29T14:08:13;26.00;51.40
38854;DHT22;24606;51.992;4.198;2023-05-29T14:13:14;26.30;50.10
38854;DHT22;24606;51.992;4.198;2023-05-29T14:18:16;26.30;51.00
38854;DHT22;24606;51.992;4.198;2023-05-29T14:23:20;25.90;50.80
38854;DHT22;24606;51.992;4.198;2023-05-29T14:28:22;26.10;50.80
38854;DHT22;24606;51.992;4.198;2023-05-29T14:33:24;26.30;51.20
38854;DHT22;24606;51.992;4.198;2023-05-29T14:38:28;26.60;50.10
38854;DHT22;24606;51.992;4.198;2023-05-29T14:43:30;26.30;51.70
38854;DHT22;24606;51.992;4.198;2023-05-29T14:48:32;26.50;51.20
38854;DHT22;24606;51.992;4.198;2023-05-29T14:53:35;26.50;51.40
38854;DHT22;24606;51.992;4.198;2023-05-29T14:58:38;26.20;47.90
38854;DHT22;24606;51.992;4.198;2023-05-29T15:03:43;26.40;51.50
38854;DHT22;24606;51.992;4.198;2023-05-29T15:08:47;26.90;51.40
38854;DHT22;24606;51.992;4.198;2023-05-29T15:13:51;27.20;50.40
38854;DHT22;24606;51.992;4.198;2023-05-29T15:18:53;27.60;51.00
38854;DHT22;24606;51.992;4.198;2023-05-29T15:23:56;27.20;50.10
38854;DHT22;24606;51.992;4.198;2023-05-29T15:28:58;26.90;51.00
38854;DHT22;24606;51.992;4.198;2023-05-29T15:34:00;27.50;50.70
38854;DHT22;24606;51.992;4.198;2023-05-29T15:39:03;27.60;51.50
38854;DHT22;24606;51.992;4.198;2023-05-29T15:44:05;27.80;51.40
38854;DHT22;24606;51.992;4.198;2023-05-29T15:49:09;28.00;50.80
38854;DHT22;24606;51.992;4.198;2023-05-29T15:54:12;27.10;51.10
38854;DHT22;24606;51.992;4.198;2023-05-29T15:59:13;27.80;50.50
38854;DHT22;24606;51.992;4.198;2023-05-29T16:04:15;28.20;51.60
38854;DHT22;24606;51.992;4.198;2023-05-29T16:09:19;28.10;52.50
38854;DHT22;24606;51.992;4.198;2023-05-29T16:14:21;27.90;52.20
38854;DHT22;24606;51.992;4.198;2023-05-29T16:19:23;28.20;50.30
38854;DHT22;24606;51.992;4.198;2023-05-29T16:24:26;28.20;51.30
38854;DHT22;24606;51.992;4.198;2023-05-29T16:29:32;28.20;50.90
38854;DHT22;24606;51.992;4.198;2023-05-29T16:34:34;28.00;51.50
38854;DHT22;24606;51.992;4.198;2023-05-29T16:39:37;28.50;51.60
38854;DHT22;24606;51.992;4.198;2023-05-29T16:44:39;27.70;52.50
38854;DHT22;24606;51.992;4.198;2023-05-29T16:49:42;27.70;54.10
38854;DHT22;24606;51.992;4.198;2023-05-29T16:54:46;28.40;52.50
38854;DHT22;24606;51.992;4.198;2023-05-29T16:59:48;28.50;50.80
38854;DHT22;24606;51.992;4.198;2023-05-29T17:04:50;28.70;51.50
38854;DHT22;24606;51.992;4.198;2023-05-29T17:09:53;28.30;50.40
38854;DHT22;24606;51.992;4.198;2023-05-29T17:14:56;28.30;51.80
38854;DHT22;24606;51.992;4.198;2023-05-29T17:19:57;28.40;52.50
38854;DHT22;24606;51.992;4.198;2023-05-29T17:25:01;28.70;52.70
38854;DHT22;24606;51.992;4.198;2023-05-29T17:30:03;28.30;52.00
38854;DHT22;24606;51.992;4.198;2023-05-29T17:35:06;28.30;52.20
38854;DHT22;24606;51.992;4.198;2023-05-29T17:40:10;28.50;51.20
38854;DHT22;24606;51.992;4.198;2023-05-29T17:45:12;28.50;51.20
38854;DHT22;24606;51.992;4.198;2023-05-29T17:50:14;27.90;51.80
38854;DHT22;24606;51.992;4.198;2023-05-29T17:55:18;28.30;50.90
38854;DHT22;24606;51.992;4.198;2023-05-29T18:00:20;28.50;50.60
38854;DHT22;24606;51.992;4.198;2023-05-29T18:05:23;28.50;51.00
38854;DHT22;24606;51.992;4.198;2023-05-29T18:10:26;28.30;49.70
38854;DHT22;24606;51.992;4.198;2023-05-29T18:15:29;28.10;51.20
38854;DHT22;24606;51.992;4.198;2023-05-29T18:20:30;28.10;49.50
38854;DHT22;24606;51.992;4.198;2023-05-29T18:25:34;28.20;51.50
38854;DHT22;24606;51.992;4.198;2023-05-29T18:30:36;28.50;51.00
38854;DHT22;24606;51.992;4.198;2023-05-29T18:35:38;28.30;50.10
38854;DHT22;24606;51.992;4.198;2023-05-29T18:40:41;28.60;50.20
38854;DHT22;24606;51.992;4.198;2023-05-29T18:45:43;28.50;50.20
38854;DHT22;24606;51.992;4.198;2023-05-29T18:50:45;28.40;50.30
38854;DHT22;24606;51.992;4.198;2023-05-29T18:55:49;28.30;49.40
38854;DHT22;24606;51.992;4.198;2023-05-29T19:00:51;28.60;49.90
38854;DHT22;24606;51.992;4.198;2023-05-29T19:05:53;28.60;50.20
38854;DHT22;24606;51.992;4.198;2023-05-29T19:10:56;28.60;49.80
38854;DHT22;24606;51.992;4.198;2023-05-29T19:15:58;28.40;50.00
38854;DHT22;24606;51.992;4.198;2023-05-29T19:21:00;28.50;49.40
38854;DHT22;24606;51.992;4.198;2023-05-29T19:26:04;28.50;49.40
38854;DHT22;24606;51.992;4.198;2023-05-29T19:31:06;28.40;49.60
38854;DHT22;24606;51.992;4.198;2023-05-29T19:36:09;28.30;49.70
38854;DHT22;24606;51.992;4.198;2023-05-29T19:41:12;28.10;50.00
38854;DHT22;24606;51.992;4.198;2023-05-29T19:46:14;28.00;50.30
38854;DHT22;24606;51.992;4.198;2023-05-29T19:51:15;28.10;50.00
38854;DHT22;24606;51.992;4.198;2023-05-29T19:56:19;28.10;50.00
38854;DHT22;24606;51.992;4.198;2023-05-29T20:01:20;27.90;50.00
38854;DHT22;24606;51.992;4.198;2023-05-29T20:06:23;27.90;50.00
38854;DHT22;24606;51.992;4.198;2023-05-29T20:11:26;27.80;50.00
38854;DHT22;24606;51.992;4.198;2023-05-29T20:16:28;27.80;50.00
38854;DHT22;24606;51.992;4.198;2023-05-29T20:21:30;27.70;50.10
38854;DHT22;24606;51.992;4.198;2023-05-29T20:26:34;27.60;50.40
38854;DHT22;24606;51.992;4.198;2023-05-29T20:31:36;27.50;50.40
38854;DHT22;24606;51.992;4.198;2023-05-29T20:36:39;27.40;50.70
38854;DHT22;24606;51.992;4.198;2023-05-29T20:41:43;27.40;50.50
38854;DHT22;24606;51.992;4.198;2023-05-29T20:46:45;27.30;50.60
38854;DHT22;24606;51.992;4.198;2023-05-29T20:51:48;27.20;50.50
38854;DHT22;24606;51.992;4.198;2023-05-29T20:56:51;27.20;50.50
38854;DHT22;24606;51.992;4.198;2023-05-29T21:01:53;27.10;50.20
38854;DHT22;24606;51.992;4.198;2023-05-29T21:06:56;27.10;50.70
38854;DHT22;24606;51.992;4.198;2023-05-29T21:11:59;26.80;50.60
38854;DHT22;24606;51.992;4.198;2023-05-29T21:17:02;26.90;50.60
38854;DHT22;24606;51.992;4.198;2023-05-29T21:22:05;26.90;50.50
38854;DHT22;24606;51.992;4.198;2023-05-29T21:27:08;26.60;50.80
38854;DHT22;24606;51.992;4.198;2023-05-29T21:32:10;26.70;50.60
38854;DHT22;24606;51.992;4.198;2023-05-29T21:37:11;26.70;50.50
38854;DHT22;24606;51.992;4.198;2023-05-29T21:42:15;26.60;50.50
38854;DHT22;24606;51.992;4.198;2023-05-29T21:47:17;26.60;50.50
38854;DHT22;24606;51.992;4.198;2023-05-29T21:52:20;26.50;50.30
38854;DHT22;24606;51.992;4.198;2023-05-29T21:57:23;26.40;50.40
38854;DHT22;24606;51.992;4.198;2023-05-29T22:02:24;26.40;50.40
38854;DHT22;24606;51.992;4.198;2023-05-29T22:07:26;26.30;50.50
38854;DHT22;24606;51.992;4.198;2023-05-29T22:12:30;26.20;50.40
38854;DHT22;24606;51.992;4.198;2023-05-29T22:17:33;26.20;50.40
38854;DHT22;24606;51.992;4.198;2023-05-29T22:22:35;26.00;50.60
38854;DHT22;24606;51.992;4.198;2023-05-29T22:27:40;26.00;50.40
38854;DHT22;24606;51.992;4.198;2023-05-29T22:32:42;26.00;50.40
38854;DHT22;24606;51.992;4.198;2023-05-29T22:37:44;25.90;50.40
38854;DHT22;24606;51.992;4.198;2023-05-29T22:42:47;25.70;50.40
38854;DHT22;24606;51.992;4.198;2023-05-29T22:47:49;25.70;50.60
38854;DHT22;24606;51.992;4.198;2023-05-29T22:52:51;25.70;50.50
38854;DHT22;24606;51.992;4.198;2023-05-29T22:57:54;25.60;50.40
38854;DHT22;24606;51.992;4.198;2023-05-29T23:02:56;25.60;50.40
38854;DHT22;24606;51.992;4.198;2023-05-29T23:07:58;25.50;50.50
38854;DHT22;24606;51.992;4.198;2023-05-29T23:13:03;25.50;50.40
38854;DHT22;24606;51.992;4.198;2023-05-29T23:18:07;25.40;50.50
38854;DHT22;24606;51.992;4.198;2023-05-29T23:23:09;25.40;50.50
38854;DHT22;24606;51.992;4.198;2023-05-29T23:28:13;25.30;50.40
38854;DHT22;24606;51.992;4.198;2023-05-29T23:33:15;25.30;50.60
38854;DHT22;24606;51.992;4.198;2023-05-29T23:38:17;25.20;50.40
38854;DHT22;24606;51.992;4.198;2023-05-29T23:43:20;25.20;50.50
38854;DHT22;24606;51.992;4.198;2023-05-29T23:48:22;25.10;50.40
38854;DHT22;24606;51.992;4.198;2023-05-29T23:53:24;25.00;50.50
38854;DHT22;24606;51.992;4.198;2023-05-29T23:58:28;24.90;50.40
